<?xml version="1.0" encoding="UTF-8" standalone="no" ?>
<gpx xmlns="http://www.topografix.com/GPX/1/1" xmlns:xsi="http://www.w3.org/2001/XMLSchema-instance" xsi:schemaLocation="http://www.topografix.com/GPX/1/1 http://www.topografix.com/GPX/1/1/gpx.xsd" version="1.1" creator="VisuGPX - https://www.visugpx.com">
  <metadata>
    <name>Clermont-Ferrand - Massat - Pau par François</name>
    <desc><![CDATA[Trajet effectué par François sur la "Diagonale du vide" en aout 2020]]></desc>
  </metadata>
  <trk>
    <name><![CDATA[route110]]></name>
    <trkseg>
      <trkpt lat="43.99006" lon="3.60622">
        <ele>277</ele>
        <time>2020-08-23T06:28:51Z</time>
      </trkpt>
      <trkpt lat="43.98907" lon="3.60606">
        <ele>278.2</ele>
        <time>2020-08-23T06:32:45Z</time>
      </trkpt>
      <trkpt lat="43.98815" lon="3.6059">
        <ele>278.4</ele>
        <time>2020-08-23T06:34:26Z</time>
      </trkpt>
      <trkpt lat="43.98719" lon="3.60588">
        <ele>278.3</ele>
        <time>2020-08-23T06:34:56Z</time>
      </trkpt>
      <trkpt lat="43.98823" lon="3.60592">
        <ele>276.6</ele>
        <time>2020-08-23T06:36:35Z</time>
      </trkpt>
      <trkpt lat="43.98895" lon="3.607">
        <ele>275.9</ele>
        <time>2020-08-23T06:37:14Z</time>
      </trkpt>
      <trkpt lat="43.98806" lon="3.60642">
        <ele>275.4</ele>
        <time>2020-08-23T06:40:11Z</time>
      </trkpt>
      <trkpt lat="43.98704" lon="3.60665">
        <ele>275.1</ele>
        <time>2020-08-23T06:41:23Z</time>
      </trkpt>
      <trkpt lat="43.98611" lon="3.60686">
        <ele>275</ele>
        <time>2020-08-23T06:42:04Z</time>
      </trkpt>
      <trkpt lat="43.98513" lon="3.60661">
        <ele>275</ele>
        <time>2020-08-23T06:42:39Z</time>
      </trkpt>
      <trkpt lat="43.98417" lon="3.60633">
        <ele>275.2</ele>
        <time>2020-08-23T06:43:37Z</time>
      </trkpt>
      <trkpt lat="43.98333" lon="3.60562">
        <ele>275.3</ele>
        <time>2020-08-23T06:44:19Z</time>
      </trkpt>
      <trkpt lat="43.98252" lon="3.60485">
        <ele>275.8</ele>
        <time>2020-08-23T06:46:01Z</time>
      </trkpt>
      <trkpt lat="43.98187" lon="3.60393">
        <ele>276.6</ele>
        <time>2020-08-23T06:46:48Z</time>
      </trkpt>
      <trkpt lat="43.98256" lon="3.60304">
        <ele>278.3</ele>
        <time>2020-08-23T06:48:13Z</time>
      </trkpt>
      <trkpt lat="43.98346" lon="3.60267">
        <ele>278.5</ele>
        <time>2020-08-23T06:49:03Z</time>
      </trkpt>
      <trkpt lat="43.98267" lon="3.60184">
        <ele>278.9</ele>
        <time>2020-08-23T06:49:38Z</time>
      </trkpt>
      <trkpt lat="43.98191" lon="3.60112">
        <ele>279.3</ele>
        <time>2020-08-23T06:50:08Z</time>
      </trkpt>
      <trkpt lat="43.98111" lon="3.60037">
        <ele>279.8</ele>
        <time>2020-08-23T06:50:38Z</time>
      </trkpt>
      <trkpt lat="43.98023" lon="3.59962">
        <ele>280.4</ele>
        <time>2020-08-23T06:51:08Z</time>
      </trkpt>
      <trkpt lat="43.97934" lon="3.59891">
        <ele>281.2</ele>
        <time>2020-08-23T06:51:38Z</time>
      </trkpt>
      <trkpt lat="43.97842" lon="3.5988">
        <ele>283.3</ele>
        <time>2020-08-23T06:52:03Z</time>
      </trkpt>
      <trkpt lat="43.97753" lon="3.59937">
        <ele>283.7</ele>
        <time>2020-08-23T06:52:28Z</time>
      </trkpt>
      <trkpt lat="43.9768" lon="3.60006">
        <ele>284.1</ele>
        <time>2020-08-23T06:52:53Z</time>
      </trkpt>
      <trkpt lat="43.97587" lon="3.59955">
        <ele>284.7</ele>
        <time>2020-08-23T06:53:18Z</time>
      </trkpt>
      <trkpt lat="43.97494" lon="3.59994">
        <ele>285.1</ele>
        <time>2020-08-23T06:53:43Z</time>
      </trkpt>
      <trkpt lat="43.97405" lon="3.60027">
        <ele>285.6</ele>
        <time>2020-08-23T06:54:13Z</time>
      </trkpt>
      <trkpt lat="43.97311" lon="3.6001">
        <ele>286.7</ele>
        <time>2020-08-23T06:54:53Z</time>
      </trkpt>
      <trkpt lat="43.97216" lon="3.60015">
        <ele>288.6</ele>
        <time>2020-08-23T06:55:57Z</time>
      </trkpt>
      <trkpt lat="43.97113" lon="3.60048">
        <ele>290.5</ele>
        <time>2020-08-23T06:56:38Z</time>
      </trkpt>
      <trkpt lat="43.97021" lon="3.60099">
        <ele>292.3</ele>
        <time>2020-08-23T06:56:58Z</time>
      </trkpt>
      <trkpt lat="43.9693" lon="3.6014">
        <ele>293.3</ele>
        <time>2020-08-23T06:57:18Z</time>
      </trkpt>
      <trkpt lat="43.96847" lon="3.60195">
        <ele>294.1</ele>
        <time>2020-08-23T06:57:38Z</time>
      </trkpt>
      <trkpt lat="43.96748" lon="3.60216">
        <ele>294.9</ele>
        <time>2020-08-23T06:58:03Z</time>
      </trkpt>
      <trkpt lat="43.96659" lon="3.60241">
        <ele>296</ele>
        <time>2020-08-23T06:58:38Z</time>
      </trkpt>
      <trkpt lat="43.96567" lon="3.60265">
        <ele>297.7</ele>
        <time>2020-08-23T06:59:18Z</time>
      </trkpt>
      <trkpt lat="43.96472" lon="3.60302">
        <ele>299.8</ele>
        <time>2020-08-23T06:59:58Z</time>
      </trkpt>
      <trkpt lat="43.96383" lon="3.60277">
        <ele>302.2</ele>
        <time>2020-08-23T07:00:43Z</time>
      </trkpt>
      <trkpt lat="43.96285" lon="3.60298">
        <ele>305.3</ele>
        <time>2020-08-23T07:01:18Z</time>
      </trkpt>
      <trkpt lat="43.96188" lon="3.60274">
        <ele>307.6</ele>
        <time>2020-08-23T07:01:43Z</time>
      </trkpt>
      <trkpt lat="43.96102" lon="3.60223">
        <ele>309</ele>
        <time>2020-08-23T07:02:23Z</time>
      </trkpt>
      <trkpt lat="43.96009" lon="3.6018">
        <ele>313.9</ele>
        <time>2020-08-23T07:03:28Z</time>
      </trkpt>
      <trkpt lat="43.95912" lon="3.60172">
        <ele>322.1</ele>
        <time>2020-08-23T07:03:58Z</time>
      </trkpt>
      <trkpt lat="43.95822" lon="3.60095">
        <ele>325.4</ele>
        <time>2020-08-23T07:04:18Z</time>
      </trkpt>
      <trkpt lat="43.95746" lon="3.60019">
        <ele>327.3</ele>
        <time>2020-08-23T07:04:56Z</time>
      </trkpt>
      <trkpt lat="43.9567" lon="3.59931">
        <ele>331.3</ele>
        <time>2020-08-23T07:06:06Z</time>
      </trkpt>
      <trkpt lat="43.95573" lon="3.59933">
        <ele>335.4</ele>
        <time>2020-08-23T07:07:08Z</time>
      </trkpt>
      <trkpt lat="43.9548" lon="3.59929">
        <ele>339.6</ele>
        <time>2020-08-23T07:08:12Z</time>
      </trkpt>
      <trkpt lat="43.95441" lon="3.59812">
        <ele>344.7</ele>
        <time>2020-08-23T07:09:24Z</time>
      </trkpt>
      <trkpt lat="43.95381" lon="3.5991">
        <ele>349.7</ele>
        <time>2020-08-23T07:10:32Z</time>
      </trkpt>
      <trkpt lat="43.9529" lon="3.59885">
        <ele>354</ele>
        <time>2020-08-23T07:11:34Z</time>
      </trkpt>
      <trkpt lat="43.95211" lon="3.5982">
        <ele>357.7</ele>
        <time>2020-08-23T07:12:35Z</time>
      </trkpt>
      <trkpt lat="43.95134" lon="3.59738">
        <ele>362.6</ele>
        <time>2020-08-23T07:13:57Z</time>
      </trkpt>
      <trkpt lat="43.95043" lon="3.59718">
        <ele>372.2</ele>
        <time>2020-08-23T07:15:25Z</time>
      </trkpt>
      <trkpt lat="43.94965" lon="3.59629">
        <ele>391.4</ele>
        <time>2020-08-23T07:17:08Z</time>
      </trkpt>
      <trkpt lat="43.94873" lon="3.59649">
        <ele>398.8</ele>
        <time>2020-08-23T07:18:10Z</time>
      </trkpt>
      <trkpt lat="43.94808" lon="3.59551">
        <ele>407.9</ele>
        <time>2020-08-23T07:19:52Z</time>
      </trkpt>
      <trkpt lat="43.94733" lon="3.59475">
        <ele>412.3</ele>
        <time>2020-08-23T07:20:49Z</time>
      </trkpt>
      <trkpt lat="43.94675" lon="3.59371">
        <ele>417.2</ele>
        <time>2020-08-23T07:21:54Z</time>
      </trkpt>
      <trkpt lat="43.94581" lon="3.59329">
        <ele>422.6</ele>
        <time>2020-08-23T07:23:07Z</time>
      </trkpt>
      <trkpt lat="43.94485" lon="3.59332">
        <ele>430</ele>
        <time>2020-08-23T07:24:12Z</time>
      </trkpt>
      <trkpt lat="43.94394" lon="3.59337">
        <ele>448.7</ele>
        <time>2020-08-23T07:26:45Z</time>
      </trkpt>
      <trkpt lat="43.94354" lon="3.59452">
        <ele>454.3</ele>
        <time>2020-08-23T07:27:51Z</time>
      </trkpt>
      <trkpt lat="43.94283" lon="3.59526">
        <ele>458.8</ele>
        <time>2020-08-23T07:28:50Z</time>
      </trkpt>
      <trkpt lat="43.94191" lon="3.59571">
        <ele>466.2</ele>
        <time>2020-08-23T07:30:05Z</time>
      </trkpt>
      <trkpt lat="43.94127" lon="3.59473">
        <ele>474</ele>
        <time>2020-08-23T07:31:20Z</time>
      </trkpt>
      <trkpt lat="43.94038" lon="3.59426">
        <ele>483</ele>
        <time>2020-08-23T07:32:21Z</time>
      </trkpt>
      <trkpt lat="43.93945" lon="3.59424">
        <ele>492</ele>
        <time>2020-08-23T07:33:26Z</time>
      </trkpt>
      <trkpt lat="43.93848" lon="3.59438">
        <ele>499.4</ele>
        <time>2020-08-23T07:34:37Z</time>
      </trkpt>
      <trkpt lat="43.93761" lon="3.59374">
        <ele>516.8</ele>
        <time>2020-08-23T07:37:46Z</time>
      </trkpt>
      <trkpt lat="43.93715" lon="3.59256">
        <ele>525</ele>
        <time>2020-08-23T07:39:09Z</time>
      </trkpt>
      <trkpt lat="43.93626" lon="3.59207">
        <ele>534.2</ele>
        <time>2020-08-23T07:40:23Z</time>
      </trkpt>
      <trkpt lat="43.93536" lon="3.59158">
        <ele>542.3</ele>
        <time>2020-08-23T07:41:33Z</time>
      </trkpt>
      <trkpt lat="43.93439" lon="3.59145">
        <ele>549.7</ele>
        <time>2020-08-23T07:42:46Z</time>
      </trkpt>
      <trkpt lat="43.93345" lon="3.59134">
        <ele>555.8</ele>
        <time>2020-08-23T07:43:54Z</time>
      </trkpt>
      <trkpt lat="43.93279" lon="3.59216">
        <ele>559.2</ele>
        <time>2020-08-23T07:44:51Z</time>
      </trkpt>
      <trkpt lat="43.93192" lon="3.59157">
        <ele>578.3</ele>
        <time>2020-08-23T07:47:47Z</time>
      </trkpt>
      <trkpt lat="43.93099" lon="3.59151">
        <ele>589.2</ele>
        <time>2020-08-23T07:49:04Z</time>
      </trkpt>
      <trkpt lat="43.93016" lon="3.59215">
        <ele>595.3</ele>
        <time>2020-08-23T07:50:16Z</time>
      </trkpt>
      <trkpt lat="43.9294" lon="3.59292">
        <ele>601.4</ele>
        <time>2020-08-23T07:51:31Z</time>
      </trkpt>
      <trkpt lat="43.9287" lon="3.59382">
        <ele>611.8</ele>
        <time>2020-08-23T07:52:46Z</time>
      </trkpt>
      <trkpt lat="43.92782" lon="3.5941">
        <ele>621.8</ele>
        <time>2020-08-23T07:53:58Z</time>
      </trkpt>
      <trkpt lat="43.92708" lon="3.59326">
        <ele>630.4</ele>
        <time>2020-08-23T07:55:08Z</time>
      </trkpt>
      <trkpt lat="43.92645" lon="3.59225">
        <ele>645.1</ele>
        <time>2020-08-23T07:57:56Z</time>
      </trkpt>
      <trkpt lat="43.92585" lon="3.59108">
        <ele>673</ele>
        <time>2020-08-23T08:25:06Z</time>
      </trkpt>
      <trkpt lat="43.92517" lon="3.58996">
        <ele>672.6</ele>
        <time>2020-08-23T08:25:36Z</time>
      </trkpt>
      <trkpt lat="43.92463" lon="3.58878">
        <ele>672.5</ele>
        <time>2020-08-23T08:25:56Z</time>
      </trkpt>
      <trkpt lat="43.92451" lon="3.5875">
        <ele>672.2</ele>
        <time>2020-08-23T08:26:16Z</time>
      </trkpt>
      <trkpt lat="43.92446" lon="3.58571">
        <ele>670.7</ele>
        <time>2020-08-23T08:26:36Z</time>
      </trkpt>
      <trkpt lat="43.92425" lon="3.58409">
        <ele>669.5</ele>
        <time>2020-08-23T08:26:51Z</time>
      </trkpt>
      <trkpt lat="43.92393" lon="3.58254">
        <ele>668.7</ele>
        <time>2020-08-23T08:27:25Z</time>
      </trkpt>
      <trkpt lat="43.92366" lon="3.58101">
        <ele>667.3</ele>
        <time>2020-08-23T08:27:40Z</time>
      </trkpt>
      <trkpt lat="43.9235" lon="3.5797">
        <ele>666.4</ele>
        <time>2020-08-23T08:27:55Z</time>
      </trkpt>
      <trkpt lat="43.92319" lon="3.57835">
        <ele>664.8</ele>
        <time>2020-08-23T08:28:15Z</time>
      </trkpt>
      <trkpt lat="43.92282" lon="3.57718">
        <ele>664</ele>
        <time>2020-08-23T08:28:45Z</time>
      </trkpt>
      <trkpt lat="43.92258" lon="3.57565">
        <ele>661</ele>
        <time>2020-08-23T08:29:15Z</time>
      </trkpt>
      <trkpt lat="43.92277" lon="3.57405">
        <ele>657.9</ele>
        <time>2020-08-23T08:29:35Z</time>
      </trkpt>
      <trkpt lat="43.92293" lon="3.57258">
        <ele>657.1</ele>
        <time>2020-08-23T08:29:55Z</time>
      </trkpt>
      <trkpt lat="43.92299" lon="3.57122">
        <ele>656.5</ele>
        <time>2020-08-23T08:30:25Z</time>
      </trkpt>
      <trkpt lat="43.92332" lon="3.56994">
        <ele>656</ele>
        <time>2020-08-23T08:31:00Z</time>
      </trkpt>
      <trkpt lat="43.92372" lon="3.56865">
        <ele>655.7</ele>
        <time>2020-08-23T08:31:35Z</time>
      </trkpt>
      <trkpt lat="43.92391" lon="3.56739">
        <ele>654.8</ele>
        <time>2020-08-23T08:32:00Z</time>
      </trkpt>
      <trkpt lat="43.92407" lon="3.56617">
        <ele>655.4</ele>
        <time>2020-08-23T08:32:48Z</time>
      </trkpt>
      <trkpt lat="43.9237" lon="3.56494">
        <ele>656.4</ele>
        <time>2020-08-23T08:33:44Z</time>
      </trkpt>
      <trkpt lat="43.92362" lon="3.56367">
        <ele>657.7</ele>
        <time>2020-08-23T08:34:50Z</time>
      </trkpt>
      <trkpt lat="43.92413" lon="3.56252">
        <ele>659.9</ele>
        <time>2020-08-23T08:35:47Z</time>
      </trkpt>
      <trkpt lat="43.92445" lon="3.56123">
        <ele>662.8</ele>
        <time>2020-08-23T08:36:32Z</time>
      </trkpt>
      <trkpt lat="43.92469" lon="3.55987">
        <ele>663.7</ele>
        <time>2020-08-23T08:36:52Z</time>
      </trkpt>
      <trkpt lat="43.92499" lon="3.5585">
        <ele>663.9</ele>
        <time>2020-08-23T08:37:17Z</time>
      </trkpt>
      <trkpt lat="43.92524" lon="3.55724">
        <ele>664.4</ele>
        <time>2020-08-23T08:37:42Z</time>
      </trkpt>
      <trkpt lat="43.92549" lon="3.55598">
        <ele>664.6</ele>
        <time>2020-08-23T08:38:12Z</time>
      </trkpt>
      <trkpt lat="43.92577" lon="3.55462">
        <ele>665</ele>
        <time>2020-08-23T08:38:47Z</time>
      </trkpt>
      <trkpt lat="43.92602" lon="3.55338">
        <ele>665.9</ele>
        <time>2020-08-23T08:39:12Z</time>
      </trkpt>
      <trkpt lat="43.92628" lon="3.55215">
        <ele>666</ele>
        <time>2020-08-23T08:39:37Z</time>
      </trkpt>
      <trkpt lat="43.92655" lon="3.55065">
        <ele>666.6</ele>
        <time>2020-08-23T08:40:07Z</time>
      </trkpt>
      <trkpt lat="43.92674" lon="3.54944">
        <ele>667.1</ele>
        <time>2020-08-23T08:40:27Z</time>
      </trkpt>
      <trkpt lat="43.92696" lon="3.54817">
        <ele>667.3</ele>
        <time>2020-08-23T08:40:52Z</time>
      </trkpt>
      <trkpt lat="43.92728" lon="3.54694">
        <ele>667.5</ele>
        <time>2020-08-23T08:41:27Z</time>
      </trkpt>
      <trkpt lat="43.9276" lon="3.54578">
        <ele>667.8</ele>
        <time>2020-08-23T08:42:02Z</time>
      </trkpt>
      <trkpt lat="43.92791" lon="3.54461">
        <ele>668.2</ele>
        <time>2020-08-23T08:42:37Z</time>
      </trkpt>
      <trkpt lat="43.92813" lon="3.5433">
        <ele>668.6</ele>
        <time>2020-08-23T08:43:12Z</time>
      </trkpt>
      <trkpt lat="43.92823" lon="3.54199">
        <ele>669.3</ele>
        <time>2020-08-23T08:43:42Z</time>
      </trkpt>
      <trkpt lat="43.92799" lon="3.54073">
        <ele>671.5</ele>
        <time>2020-08-23T08:44:07Z</time>
      </trkpt>
      <trkpt lat="43.92773" lon="3.53939">
        <ele>672.3</ele>
        <time>2020-08-23T08:44:32Z</time>
      </trkpt>
      <trkpt lat="43.92764" lon="3.53813">
        <ele>672.5</ele>
        <time>2020-08-23T08:45:02Z</time>
      </trkpt>
      <trkpt lat="43.92757" lon="3.53685">
        <ele>673.2</ele>
        <time>2020-08-23T08:45:32Z</time>
      </trkpt>
      <trkpt lat="43.92706" lon="3.5354">
        <ele>674</ele>
        <time>2020-08-23T08:45:52Z</time>
      </trkpt>
      <trkpt lat="43.92662" lon="3.53427">
        <ele>674.4</ele>
        <time>2020-08-23T08:46:07Z</time>
      </trkpt>
      <trkpt lat="43.92617" lon="3.53316">
        <ele>674.2</ele>
        <time>2020-08-23T08:46:22Z</time>
      </trkpt>
      <trkpt lat="43.92564" lon="3.53182">
        <ele>674.2</ele>
        <time>2020-08-23T08:46:42Z</time>
      </trkpt>
      <trkpt lat="43.92507" lon="3.53043">
        <ele>674.6</ele>
        <time>2020-08-23T08:47:02Z</time>
      </trkpt>
      <trkpt lat="43.92453" lon="3.52904">
        <ele>673.1</ele>
        <time>2020-08-23T08:47:22Z</time>
      </trkpt>
      <trkpt lat="43.92401" lon="3.52786">
        <ele>673.4</ele>
        <time>2020-08-23T08:47:47Z</time>
      </trkpt>
      <trkpt lat="43.92351" lon="3.52662">
        <ele>674.4</ele>
        <time>2020-08-23T08:48:22Z</time>
      </trkpt>
      <trkpt lat="43.92313" lon="3.52541">
        <ele>676.9</ele>
        <time>2020-08-23T08:49:10Z</time>
      </trkpt>
      <trkpt lat="43.9231" lon="3.52399">
        <ele>679.4</ele>
        <time>2020-08-23T08:49:56Z</time>
      </trkpt>
      <trkpt lat="43.92254" lon="3.52245">
        <ele>677.8</ele>
        <time>2020-08-23T08:50:16Z</time>
      </trkpt>
      <trkpt lat="43.92195" lon="3.52136">
        <ele>677</ele>
        <time>2020-08-23T08:50:31Z</time>
      </trkpt>
      <trkpt lat="43.9213" lon="3.52019">
        <ele>676.9</ele>
        <time>2020-08-23T08:50:51Z</time>
      </trkpt>
      <trkpt lat="43.92051" lon="3.51933">
        <ele>678.1</ele>
        <time>2020-08-23T08:51:26Z</time>
      </trkpt>
      <trkpt lat="43.91965" lon="3.51889">
        <ele>678</ele>
        <time>2020-08-23T08:51:41Z</time>
      </trkpt>
      <trkpt lat="43.91872" lon="3.51841">
        <ele>677.5</ele>
        <time>2020-08-23T08:51:56Z</time>
      </trkpt>
      <trkpt lat="43.91782" lon="3.51801">
        <ele>678</ele>
        <time>2020-08-23T08:52:16Z</time>
      </trkpt>
      <trkpt lat="43.91695" lon="3.51763">
        <ele>678.1</ele>
        <time>2020-08-23T08:52:41Z</time>
      </trkpt>
      <trkpt lat="43.9159" lon="3.51729">
        <ele>678.4</ele>
        <time>2020-08-23T08:53:11Z</time>
      </trkpt>
      <trkpt lat="43.91501" lon="3.51702">
        <ele>678.9</ele>
        <time>2020-08-23T08:53:41Z</time>
      </trkpt>
      <trkpt lat="43.91442" lon="3.51599">
        <ele>680.2</ele>
        <time>2020-08-23T08:54:27Z</time>
      </trkpt>
      <trkpt lat="43.91389" lon="3.51482">
        <ele>682.5</ele>
        <time>2020-08-23T08:55:21Z</time>
      </trkpt>
      <trkpt lat="43.91325" lon="3.51377">
        <ele>685.7</ele>
        <time>2020-08-23T08:56:22Z</time>
      </trkpt>
      <trkpt lat="43.91237" lon="3.51305">
        <ele>692.1</ele>
        <time>2020-08-23T08:56:57Z</time>
      </trkpt>
      <trkpt lat="43.91145" lon="3.51335">
        <ele>694.3</ele>
        <time>2020-08-23T08:57:27Z</time>
      </trkpt>
      <trkpt lat="43.91067" lon="3.5144">
        <ele>694.1</ele>
        <time>2020-08-23T08:57:47Z</time>
      </trkpt>
      <trkpt lat="43.91005" lon="3.51537">
        <ele>693.7</ele>
        <time>2020-08-23T08:57:57Z</time>
      </trkpt>
      <trkpt lat="43.90937" lon="3.5169">
        <ele>693.4</ele>
        <time>2020-08-23T08:58:12Z</time>
      </trkpt>
      <trkpt lat="43.90855" lon="3.51799">
        <ele>693.2</ele>
        <time>2020-08-23T08:58:27Z</time>
      </trkpt>
      <trkpt lat="43.90775" lon="3.51857">
        <ele>692.5</ele>
        <time>2020-08-23T08:58:42Z</time>
      </trkpt>
      <trkpt lat="43.90686" lon="3.51811">
        <ele>691.9</ele>
        <time>2020-08-23T08:58:57Z</time>
      </trkpt>
      <trkpt lat="43.90604" lon="3.51733">
        <ele>692.1</ele>
        <time>2020-08-23T08:59:12Z</time>
      </trkpt>
      <trkpt lat="43.90521" lon="3.51672">
        <ele>691.8</ele>
        <time>2020-08-23T08:59:27Z</time>
      </trkpt>
      <trkpt lat="43.90424" lon="3.51657">
        <ele>691.3</ele>
        <time>2020-08-23T08:59:42Z</time>
      </trkpt>
      <trkpt lat="43.90325" lon="3.5166">
        <ele>690.5</ele>
        <time>2020-08-23T08:59:57Z</time>
      </trkpt>
      <trkpt lat="43.90328" lon="3.51529">
        <ele>690.6</ele>
        <time>2020-08-23T09:00:47Z</time>
      </trkpt>
      <trkpt lat="43.90281" lon="3.51636">
        <ele>686.4</ele>
        <time>2020-08-23T09:02:23Z</time>
      </trkpt>
      <trkpt lat="43.90192" lon="3.51659">
        <ele>686.3</ele>
        <time>2020-08-23T09:02:48Z</time>
      </trkpt>
      <trkpt lat="43.90089" lon="3.51671">
        <ele>684.1</ele>
        <time>2020-08-23T09:03:03Z</time>
      </trkpt>
      <trkpt lat="43.90008" lon="3.51609">
        <ele>683.2</ele>
        <time>2020-08-23T09:03:18Z</time>
      </trkpt>
      <trkpt lat="43.89965" lon="3.5149">
        <ele>684.4</ele>
        <time>2020-08-23T09:11:36Z</time>
      </trkpt>
      <trkpt lat="43.8994" lon="3.51355">
        <ele>662.3</ele>
        <time>2020-08-23T09:25:45Z</time>
      </trkpt>
      <trkpt lat="43.89924" lon="3.51493">
        <ele>657.1</ele>
        <time>2020-08-23T09:26:20Z</time>
      </trkpt>
      <trkpt lat="43.8991" lon="3.51365">
        <ele>652.2</ele>
        <time>2020-08-23T09:26:50Z</time>
      </trkpt>
      <trkpt lat="43.8994" lon="3.5122">
        <ele>636.5</ele>
        <time>2020-08-23T09:27:05Z</time>
      </trkpt>
      <trkpt lat="43.89899" lon="3.51054">
        <ele>613.6</ele>
        <time>2020-08-23T09:27:25Z</time>
      </trkpt>
      <trkpt lat="43.89867" lon="3.50926">
        <ele>613.7</ele>
        <time>2020-08-23T09:27:45Z</time>
      </trkpt>
      <trkpt lat="43.89926" lon="3.50832">
        <ele>611</ele>
        <time>2020-08-23T09:28:25Z</time>
      </trkpt>
      <trkpt lat="43.89988" lon="3.50736">
        <ele>606.4</ele>
        <time>2020-08-23T09:29:00Z</time>
      </trkpt>
      <trkpt lat="43.90056" lon="3.5065">
        <ele>600.8</ele>
        <time>2020-08-23T09:29:35Z</time>
      </trkpt>
      <trkpt lat="43.90062" lon="3.50511">
        <ele>596.1</ele>
        <time>2020-08-23T09:30:32Z</time>
      </trkpt>
      <trkpt lat="43.90069" lon="3.50376">
        <ele>600.9</ele>
        <time>2020-08-23T09:31:16Z</time>
      </trkpt>
      <trkpt lat="43.90047" lon="3.50252">
        <ele>601.5</ele>
        <time>2020-08-23T09:32:02Z</time>
      </trkpt>
      <trkpt lat="43.90037" lon="3.50116">
        <ele>597.6</ele>
        <time>2020-08-23T09:32:49Z</time>
      </trkpt>
      <trkpt lat="43.89958" lon="3.5005">
        <ele>595</ele>
        <time>2020-08-23T09:33:14Z</time>
      </trkpt>
      <trkpt lat="43.89892" lon="3.49951">
        <ele>595.4</ele>
        <time>2020-08-23T09:33:44Z</time>
      </trkpt>
      <trkpt lat="43.89814" lon="3.4986">
        <ele>595.6</ele>
        <time>2020-08-23T09:34:29Z</time>
      </trkpt>
      <trkpt lat="43.89818" lon="3.49717">
        <ele>596</ele>
        <time>2020-08-23T09:34:54Z</time>
      </trkpt>
      <trkpt lat="43.89897" lon="3.49595">
        <ele>594.1</ele>
        <time>2020-08-23T09:35:09Z</time>
      </trkpt>
      <trkpt lat="43.89981" lon="3.4948">
        <ele>591.9</ele>
        <time>2020-08-23T09:35:19Z</time>
      </trkpt>
      <trkpt lat="43.90041" lon="3.49339">
        <ele>589.4</ele>
        <time>2020-08-23T09:35:29Z</time>
      </trkpt>
      <trkpt lat="43.90055" lon="3.49199">
        <ele>583.1</ele>
        <time>2020-08-23T09:35:39Z</time>
      </trkpt>
      <trkpt lat="43.89987" lon="3.49319">
        <ele>568</ele>
        <time>2020-08-23T09:35:59Z</time>
      </trkpt>
      <trkpt lat="43.89903" lon="3.49427">
        <ele>562.4</ele>
        <time>2020-08-23T09:36:09Z</time>
      </trkpt>
      <trkpt lat="43.89795" lon="3.49472">
        <ele>552.5</ele>
        <time>2020-08-23T09:36:19Z</time>
      </trkpt>
      <trkpt lat="43.89698" lon="3.49417">
        <ele>541.6</ele>
        <time>2020-08-23T09:36:29Z</time>
      </trkpt>
      <trkpt lat="43.89644" lon="3.49517">
        <ele>529.3</ele>
        <time>2020-08-23T09:36:44Z</time>
      </trkpt>
      <trkpt lat="43.89574" lon="3.49609">
        <ele>520.7</ele>
        <time>2020-08-23T09:36:54Z</time>
      </trkpt>
      <trkpt lat="43.89517" lon="3.49784">
        <ele>511.9</ele>
        <time>2020-08-23T09:37:09Z</time>
      </trkpt>
      <trkpt lat="43.89428" lon="3.49802">
        <ele>504.7</ele>
        <time>2020-08-23T09:37:19Z</time>
      </trkpt>
      <trkpt lat="43.89335" lon="3.49733">
        <ele>499.2</ele>
        <time>2020-08-23T09:37:34Z</time>
      </trkpt>
      <trkpt lat="43.89313" lon="3.49593">
        <ele>494.1</ele>
        <time>2020-08-23T09:37:49Z</time>
      </trkpt>
      <trkpt lat="43.89259" lon="3.49475">
        <ele>482.1</ele>
        <time>2020-08-23T09:38:04Z</time>
      </trkpt>
      <trkpt lat="43.8914" lon="3.4953">
        <ele>471.1</ele>
        <time>2020-08-23T09:38:28Z</time>
      </trkpt>
      <trkpt lat="43.89195" lon="3.49637">
        <ele>460.9</ele>
        <time>2020-08-23T09:38:43Z</time>
      </trkpt>
      <trkpt lat="43.89254" lon="3.4974">
        <ele>454.3</ele>
        <time>2020-08-23T09:38:53Z</time>
      </trkpt>
      <trkpt lat="43.89256" lon="3.49873">
        <ele>450.9</ele>
        <time>2020-08-23T09:39:03Z</time>
      </trkpt>
      <trkpt lat="43.89225" lon="3.50006">
        <ele>447.7</ele>
        <time>2020-08-23T09:39:13Z</time>
      </trkpt>
      <trkpt lat="43.89182" lon="3.50134">
        <ele>444.4</ele>
        <time>2020-08-23T09:39:23Z</time>
      </trkpt>
      <trkpt lat="43.89173" lon="3.50265">
        <ele>440.1</ele>
        <time>2020-08-23T09:39:33Z</time>
      </trkpt>
      <trkpt lat="43.89277" lon="3.50247">
        <ele>426.2</ele>
        <time>2020-08-23T09:39:48Z</time>
      </trkpt>
      <trkpt lat="43.89373" lon="3.5025">
        <ele>415</ele>
        <time>2020-08-23T09:40:08Z</time>
      </trkpt>
      <trkpt lat="43.89462" lon="3.50312">
        <ele>407.6</ele>
        <time>2020-08-23T09:41:21Z</time>
      </trkpt>
      <trkpt lat="43.89515" lon="3.50419">
        <ele>407.1</ele>
        <time>2020-08-23T09:42:32Z</time>
      </trkpt>
      <trkpt lat="43.89461" lon="3.5052">
        <ele>414.8</ele>
        <time>2020-08-23T09:46:13Z</time>
      </trkpt>
      <trkpt lat="43.89456" lon="3.50653">
        <ele>420.8</ele>
        <time>2020-08-23T09:47:19Z</time>
      </trkpt>
      <trkpt lat="43.89367" lon="3.50691">
        <ele>434.4</ele>
        <time>2020-08-23T09:49:23Z</time>
      </trkpt>
      <trkpt lat="43.89271" lon="3.50676">
        <ele>446</ele>
        <time>2020-08-23T09:50:32Z</time>
      </trkpt>
      <trkpt lat="43.89172" lon="3.50676">
        <ele>454.4</ele>
        <time>2020-08-23T09:51:41Z</time>
      </trkpt>
      <trkpt lat="43.89075" lon="3.50689">
        <ele>461.2</ele>
        <time>2020-08-23T09:52:48Z</time>
      </trkpt>
      <trkpt lat="43.8898" lon="3.5072">
        <ele>469.5</ele>
        <time>2020-08-23T09:53:52Z</time>
      </trkpt>
      <trkpt lat="43.8891" lon="3.50805">
        <ele>478.7</ele>
        <time>2020-08-23T09:54:54Z</time>
      </trkpt>
      <trkpt lat="43.88893" lon="3.50932">
        <ele>488.3</ele>
        <time>2020-08-23T09:56:07Z</time>
      </trkpt>
      <trkpt lat="43.8889" lon="3.51066">
        <ele>504.9</ele>
        <time>2020-08-23T09:57:15Z</time>
      </trkpt>
      <trkpt lat="43.88936" lon="3.51187">
        <ele>516</ele>
        <time>2020-08-23T09:58:18Z</time>
      </trkpt>
      <trkpt lat="43.88854" lon="3.51257">
        <ele>523.8</ele>
        <time>2020-08-23T09:59:33Z</time>
      </trkpt>
      <trkpt lat="43.88758" lon="3.51254">
        <ele>528.6</ele>
        <time>2020-08-23T10:00:44Z</time>
      </trkpt>
      <trkpt lat="43.8868" lon="3.51328">
        <ele>533.9</ele>
        <time>2020-08-23T10:01:54Z</time>
      </trkpt>
      <trkpt lat="43.88593" lon="3.51373">
        <ele>545.3</ele>
        <time>2020-08-23T10:05:38Z</time>
      </trkpt>
      <trkpt lat="43.88525" lon="3.51459">
        <ele>563</ele>
        <time>2020-08-23T10:07:43Z</time>
      </trkpt>
      <trkpt lat="43.88439" lon="3.51496">
        <ele>574.6</ele>
        <time>2020-08-23T10:10:22Z</time>
      </trkpt>
      <trkpt lat="43.88343" lon="3.51516">
        <ele>579.5</ele>
        <time>2020-08-23T10:12:04Z</time>
      </trkpt>
      <trkpt lat="43.88427" lon="3.51459">
        <ele>607.5</ele>
        <time>2020-08-23T10:21:34Z</time>
      </trkpt>
      <trkpt lat="43.88509" lon="3.51389">
        <ele>610.5</ele>
        <time>2020-08-23T10:22:41Z</time>
      </trkpt>
      <trkpt lat="43.88572" lon="3.51287">
        <ele>614.9</ele>
        <time>2020-08-23T10:23:51Z</time>
      </trkpt>
      <trkpt lat="43.88609" lon="3.51175">
        <ele>619.2</ele>
        <time>2020-08-23T10:24:45Z</time>
      </trkpt>
      <trkpt lat="43.88657" lon="3.51069">
        <ele>622</ele>
        <time>2020-08-23T10:25:20Z</time>
      </trkpt>
      <trkpt lat="43.88708" lon="3.50969">
        <ele>625.6</ele>
        <time>2020-08-23T10:26:05Z</time>
      </trkpt>
      <trkpt lat="43.8875" lon="3.50859">
        <ele>654.8</ele>
        <time>2020-08-23T10:56:56Z</time>
      </trkpt>
      <trkpt lat="43.88691" lon="3.50735">
        <ele>656</ele>
        <time>2020-08-23T10:59:58Z</time>
      </trkpt>
      <trkpt lat="43.8864" lon="3.50614">
        <ele>656.3</ele>
        <time>2020-08-23T11:00:28Z</time>
      </trkpt>
      <trkpt lat="43.88583" lon="3.50507">
        <ele>656.6</ele>
        <time>2020-08-23T11:01:03Z</time>
      </trkpt>
      <trkpt lat="43.88469" lon="3.50502">
        <ele>656.9</ele>
        <time>2020-08-23T11:01:23Z</time>
      </trkpt>
      <trkpt lat="43.88367" lon="3.50465">
        <ele>656.5</ele>
        <time>2020-08-23T11:01:43Z</time>
      </trkpt>
      <trkpt lat="43.8827" lon="3.50425">
        <ele>656.9</ele>
        <time>2020-08-23T11:02:08Z</time>
      </trkpt>
      <trkpt lat="43.88183" lon="3.50355">
        <ele>659.4</ele>
        <time>2020-08-23T11:02:53Z</time>
      </trkpt>
      <trkpt lat="43.88092" lon="3.50279">
        <ele>662.1</ele>
        <time>2020-08-23T11:03:38Z</time>
      </trkpt>
      <trkpt lat="43.88025" lon="3.50154">
        <ele>663.6</ele>
        <time>2020-08-23T11:04:03Z</time>
      </trkpt>
      <trkpt lat="43.87948" lon="3.50065">
        <ele>665</ele>
        <time>2020-08-23T11:04:28Z</time>
      </trkpt>
      <trkpt lat="43.87853" lon="3.50064">
        <ele>665</ele>
        <time>2020-08-23T11:04:58Z</time>
      </trkpt>
      <trkpt lat="43.87765" lon="3.50087">
        <ele>665.5</ele>
        <time>2020-08-23T11:05:13Z</time>
      </trkpt>
      <trkpt lat="43.87659" lon="3.50085">
        <ele>664.5</ele>
        <time>2020-08-23T11:05:33Z</time>
      </trkpt>
      <trkpt lat="43.87559" lon="3.50089">
        <ele>662.9</ele>
        <time>2020-08-23T11:05:48Z</time>
      </trkpt>
      <trkpt lat="43.8745" lon="3.50094">
        <ele>662.3</ele>
        <time>2020-08-23T11:06:03Z</time>
      </trkpt>
      <trkpt lat="43.87358" lon="3.50092">
        <ele>662.4</ele>
        <time>2020-08-23T11:06:18Z</time>
      </trkpt>
      <trkpt lat="43.87256" lon="3.50081">
        <ele>661.6</ele>
        <time>2020-08-23T11:06:38Z</time>
      </trkpt>
      <trkpt lat="43.8716" lon="3.50078">
        <ele>661.4</ele>
        <time>2020-08-23T11:06:58Z</time>
      </trkpt>
      <trkpt lat="43.87062" lon="3.50112">
        <ele>662.1</ele>
        <time>2020-08-23T11:07:18Z</time>
      </trkpt>
      <trkpt lat="43.86978" lon="3.50168">
        <ele>663</ele>
        <time>2020-08-23T11:07:38Z</time>
      </trkpt>
      <trkpt lat="43.86904" lon="3.50243">
        <ele>663.2</ele>
        <time>2020-08-23T11:07:58Z</time>
      </trkpt>
      <trkpt lat="43.86811" lon="3.50275">
        <ele>663.3</ele>
        <time>2020-08-23T11:08:28Z</time>
      </trkpt>
      <trkpt lat="43.86723" lon="3.50243">
        <ele>663.4</ele>
        <time>2020-08-23T11:09:08Z</time>
      </trkpt>
      <trkpt lat="43.86627" lon="3.50266">
        <ele>664.3</ele>
        <time>2020-08-23T11:09:43Z</time>
      </trkpt>
      <trkpt lat="43.86523" lon="3.50321">
        <ele>665.4</ele>
        <time>2020-08-23T11:10:03Z</time>
      </trkpt>
      <trkpt lat="43.8644" lon="3.50397">
        <ele>664.1</ele>
        <time>2020-08-23T11:10:18Z</time>
      </trkpt>
      <trkpt lat="43.86363" lon="3.50469">
        <ele>662.8</ele>
        <time>2020-08-23T11:10:28Z</time>
      </trkpt>
      <trkpt lat="43.86255" lon="3.50452">
        <ele>661.5</ele>
        <time>2020-08-23T11:10:38Z</time>
      </trkpt>
      <trkpt lat="43.86141" lon="3.50442">
        <ele>659.1</ele>
        <time>2020-08-23T11:10:48Z</time>
      </trkpt>
      <trkpt lat="43.86028" lon="3.50424">
        <ele>656.1</ele>
        <time>2020-08-23T11:10:58Z</time>
      </trkpt>
      <trkpt lat="43.85922" lon="3.50443">
        <ele>654.2</ele>
        <time>2020-08-23T11:11:08Z</time>
      </trkpt>
      <trkpt lat="43.8583" lon="3.50443">
        <ele>652.4</ele>
        <time>2020-08-23T11:11:18Z</time>
      </trkpt>
      <trkpt lat="43.85707" lon="3.50479">
        <ele>652.4</ele>
        <time>2020-08-23T11:11:33Z</time>
      </trkpt>
      <trkpt lat="43.85626" lon="3.50551">
        <ele>651.6</ele>
        <time>2020-08-23T11:11:43Z</time>
      </trkpt>
      <trkpt lat="43.85558" lon="3.50649">
        <ele>650.2</ele>
        <time>2020-08-23T11:11:53Z</time>
      </trkpt>
      <trkpt lat="43.85489" lon="3.50735">
        <ele>649.4</ele>
        <time>2020-08-23T11:12:03Z</time>
      </trkpt>
      <trkpt lat="43.85376" lon="3.50805">
        <ele>648.6</ele>
        <time>2020-08-23T11:12:18Z</time>
      </trkpt>
      <trkpt lat="43.85269" lon="3.50875">
        <ele>646.6</ele>
        <time>2020-08-23T11:12:33Z</time>
      </trkpt>
      <trkpt lat="43.85172" lon="3.50904">
        <ele>645.9</ele>
        <time>2020-08-23T11:12:48Z</time>
      </trkpt>
      <trkpt lat="43.85101" lon="3.51007">
        <ele>645</ele>
        <time>2020-08-23T11:13:13Z</time>
      </trkpt>
      <trkpt lat="43.85101" lon="3.51136">
        <ele>644.6</ele>
        <time>2020-08-23T11:13:38Z</time>
      </trkpt>
      <trkpt lat="43.8506" lon="3.51254">
        <ele>644.3</ele>
        <time>2020-08-23T11:14:08Z</time>
      </trkpt>
      <trkpt lat="43.85005" lon="3.51355">
        <ele>643.7</ele>
        <time>2020-08-23T11:14:33Z</time>
      </trkpt>
      <trkpt lat="43.84936" lon="3.51444">
        <ele>643.8</ele>
        <time>2020-08-23T11:14:53Z</time>
      </trkpt>
      <trkpt lat="43.84865" lon="3.51544">
        <ele>643.4</ele>
        <time>2020-08-23T11:15:18Z</time>
      </trkpt>
      <trkpt lat="43.84826" lon="3.51656">
        <ele>644.8</ele>
        <time>2020-08-23T11:15:59Z</time>
      </trkpt>
      <trkpt lat="43.84855" lon="3.51784">
        <ele>647.9</ele>
        <time>2020-08-23T11:16:59Z</time>
      </trkpt>
      <trkpt lat="43.8481" lon="3.51894">
        <ele>650.5</ele>
        <time>2020-08-23T11:17:50Z</time>
      </trkpt>
      <trkpt lat="43.8469" lon="3.5187">
        <ele>651.3</ele>
        <time>2020-08-23T11:18:26Z</time>
      </trkpt>
      <trkpt lat="43.84594" lon="3.51874">
        <ele>647.4</ele>
        <time>2020-08-23T11:19:09Z</time>
      </trkpt>
      <trkpt lat="43.84494" lon="3.51836">
        <ele>642.4</ele>
        <time>2020-08-23T11:19:39Z</time>
      </trkpt>
      <trkpt lat="43.84412" lon="3.51733">
        <ele>638.1</ele>
        <time>2020-08-23T11:20:48Z</time>
      </trkpt>
      <trkpt lat="43.84331" lon="3.51633">
        <ele>634</ele>
        <time>2020-08-23T11:21:08Z</time>
      </trkpt>
      <trkpt lat="43.84263" lon="3.51546">
        <ele>632.1</ele>
        <time>2020-08-23T11:21:33Z</time>
      </trkpt>
      <trkpt lat="43.8425" lon="3.51417">
        <ele>631.6</ele>
        <time>2020-08-23T11:22:17Z</time>
      </trkpt>
      <trkpt lat="43.84314" lon="3.51311">
        <ele>630.2</ele>
        <time>2020-08-23T11:22:42Z</time>
      </trkpt>
      <trkpt lat="43.84376" lon="3.51218">
        <ele>629.6</ele>
        <time>2020-08-23T11:23:41Z</time>
      </trkpt>
      <trkpt lat="43.84356" lon="3.51068">
        <ele>628.5</ele>
        <time>2020-08-23T11:24:12Z</time>
      </trkpt>
      <trkpt lat="43.84335" lon="3.509">
        <ele>625.8</ele>
        <time>2020-08-23T11:24:32Z</time>
      </trkpt>
      <trkpt lat="43.84325" lon="3.50757">
        <ele>623.8</ele>
        <time>2020-08-23T11:24:47Z</time>
      </trkpt>
      <trkpt lat="43.84329" lon="3.50618">
        <ele>622.2</ele>
        <time>2020-08-23T11:25:02Z</time>
      </trkpt>
      <trkpt lat="43.84343" lon="3.50485">
        <ele>620.7</ele>
        <time>2020-08-23T11:25:17Z</time>
      </trkpt>
      <trkpt lat="43.84359" lon="3.50363">
        <ele>618.4</ele>
        <time>2020-08-23T11:25:32Z</time>
      </trkpt>
      <trkpt lat="43.84345" lon="3.50232">
        <ele>616.8</ele>
        <time>2020-08-23T11:25:52Z</time>
      </trkpt>
      <trkpt lat="43.84324" lon="3.50082">
        <ele>613.7</ele>
        <time>2020-08-23T11:26:17Z</time>
      </trkpt>
      <trkpt lat="43.84313" lon="3.49935">
        <ele>613.1</ele>
        <time>2020-08-23T11:26:42Z</time>
      </trkpt>
      <trkpt lat="43.84297" lon="3.49805">
        <ele>612.6</ele>
        <time>2020-08-23T11:27:12Z</time>
      </trkpt>
      <trkpt lat="43.84293" lon="3.49677">
        <ele>612</ele>
        <time>2020-08-23T11:27:32Z</time>
      </trkpt>
      <trkpt lat="43.84311" lon="3.49539">
        <ele>611.5</ele>
        <time>2020-08-23T11:27:57Z</time>
      </trkpt>
      <trkpt lat="43.84286" lon="3.49387">
        <ele>611</ele>
        <time>2020-08-23T11:28:22Z</time>
      </trkpt>
      <trkpt lat="43.84257" lon="3.49263">
        <ele>610.7</ele>
        <time>2020-08-23T11:28:47Z</time>
      </trkpt>
      <trkpt lat="43.84249" lon="3.49138">
        <ele>610.6</ele>
        <time>2020-08-23T11:29:17Z</time>
      </trkpt>
      <trkpt lat="43.84255" lon="3.49011">
        <ele>610.6</ele>
        <time>2020-08-23T11:29:52Z</time>
      </trkpt>
      <trkpt lat="43.84257" lon="3.48876">
        <ele>610.7</ele>
        <time>2020-08-23T11:30:27Z</time>
      </trkpt>
      <trkpt lat="43.84264" lon="3.48748">
        <ele>610.8</ele>
        <time>2020-08-23T11:31:13Z</time>
      </trkpt>
      <trkpt lat="43.84279" lon="3.48624">
        <ele>611.4</ele>
        <time>2020-08-23T11:32:11Z</time>
      </trkpt>
      <trkpt lat="43.843" lon="3.48503">
        <ele>626.4</ele>
        <time>2020-08-23T11:58:26Z</time>
      </trkpt>
      <trkpt lat="43.84219" lon="3.48425">
        <ele>627.9</ele>
        <time>2020-08-23T11:59:39Z</time>
      </trkpt>
      <trkpt lat="43.84147" lon="3.48337">
        <ele>628.8</ele>
        <time>2020-08-23T12:00:45Z</time>
      </trkpt>
      <trkpt lat="43.84055" lon="3.48307">
        <ele>630.2</ele>
        <time>2020-08-23T12:02:08Z</time>
      </trkpt>
      <trkpt lat="43.8403" lon="3.48178">
        <ele>632.6</ele>
        <time>2020-08-23T12:03:26Z</time>
      </trkpt>
      <trkpt lat="43.8402" lon="3.48047">
        <ele>639.2</ele>
        <time>2020-08-23T12:04:32Z</time>
      </trkpt>
      <trkpt lat="43.84024" lon="3.47909">
        <ele>650.3</ele>
        <time>2020-08-23T12:05:33Z</time>
      </trkpt>
      <trkpt lat="43.83998" lon="3.47776">
        <ele>654.4</ele>
        <time>2020-08-23T12:06:03Z</time>
      </trkpt>
      <trkpt lat="43.8397" lon="3.47646">
        <ele>659.1</ele>
        <time>2020-08-23T12:06:32Z</time>
      </trkpt>
      <trkpt lat="43.8396" lon="3.47497">
        <ele>662.9</ele>
        <time>2020-08-23T12:07:18Z</time>
      </trkpt>
      <trkpt lat="43.83939" lon="3.47362">
        <ele>665.2</ele>
        <time>2020-08-23T12:07:48Z</time>
      </trkpt>
      <trkpt lat="43.83917" lon="3.47237">
        <ele>666.4</ele>
        <time>2020-08-23T12:08:18Z</time>
      </trkpt>
      <trkpt lat="43.83869" lon="3.47106">
        <ele>667.9</ele>
        <time>2020-08-23T12:08:38Z</time>
      </trkpt>
      <trkpt lat="43.83816" lon="3.46982">
        <ele>668.4</ele>
        <time>2020-08-23T12:09:13Z</time>
      </trkpt>
      <trkpt lat="43.83803" lon="3.46845">
        <ele>669.8</ele>
        <time>2020-08-23T12:09:43Z</time>
      </trkpt>
      <trkpt lat="43.83809" lon="3.4672">
        <ele>671</ele>
        <time>2020-08-23T12:10:03Z</time>
      </trkpt>
      <trkpt lat="43.83816" lon="3.46584">
        <ele>671.5</ele>
        <time>2020-08-23T12:10:23Z</time>
      </trkpt>
      <trkpt lat="43.83828" lon="3.46438">
        <ele>672.3</ele>
        <time>2020-08-23T12:10:43Z</time>
      </trkpt>
      <trkpt lat="43.83842" lon="3.46289">
        <ele>674.2</ele>
        <time>2020-08-23T12:11:03Z</time>
      </trkpt>
      <trkpt lat="43.83845" lon="3.46153">
        <ele>675.6</ele>
        <time>2020-08-23T12:11:23Z</time>
      </trkpt>
      <trkpt lat="43.83854" lon="3.46017">
        <ele>676.8</ele>
        <time>2020-08-23T12:12:04Z</time>
      </trkpt>
      <trkpt lat="43.83883" lon="3.459">
        <ele>679.1</ele>
        <time>2020-08-23T12:13:01Z</time>
      </trkpt>
      <trkpt lat="43.83945" lon="3.45809">
        <ele>681.1</ele>
        <time>2020-08-23T12:13:36Z</time>
      </trkpt>
      <trkpt lat="43.84019" lon="3.45734">
        <ele>683</ele>
        <time>2020-08-23T12:14:22Z</time>
      </trkpt>
      <trkpt lat="43.84101" lon="3.45681">
        <ele>684.3</ele>
        <time>2020-08-23T12:15:14Z</time>
      </trkpt>
      <trkpt lat="43.84202" lon="3.45675">
        <ele>685.5</ele>
        <time>2020-08-23T12:16:03Z</time>
      </trkpt>
      <trkpt lat="43.84305" lon="3.45633">
        <ele>685.9</ele>
        <time>2020-08-23T12:16:23Z</time>
      </trkpt>
      <trkpt lat="43.84409" lon="3.45628">
        <ele>685.1</ele>
        <time>2020-08-23T12:16:38Z</time>
      </trkpt>
      <trkpt lat="43.84503" lon="3.45569">
        <ele>685.4</ele>
        <time>2020-08-23T12:16:53Z</time>
      </trkpt>
      <trkpt lat="43.84599" lon="3.45545">
        <ele>686.3</ele>
        <time>2020-08-23T12:17:13Z</time>
      </trkpt>
      <trkpt lat="43.84698" lon="3.45496">
        <ele>685.5</ele>
        <time>2020-08-23T12:17:33Z</time>
      </trkpt>
      <trkpt lat="43.84687" lon="3.4534">
        <ele>684.5</ele>
        <time>2020-08-23T12:17:58Z</time>
      </trkpt>
      <trkpt lat="43.84701" lon="3.45213">
        <ele>683.7</ele>
        <time>2020-08-23T12:18:23Z</time>
      </trkpt>
      <trkpt lat="43.84747" lon="3.45086">
        <ele>683.2</ele>
        <time>2020-08-23T12:18:58Z</time>
      </trkpt>
      <trkpt lat="43.84789" lon="3.4497">
        <ele>683</ele>
        <time>2020-08-23T12:19:38Z</time>
      </trkpt>
      <trkpt lat="43.8483" lon="3.4486">
        <ele>683.5</ele>
        <time>2020-08-23T12:20:34Z</time>
      </trkpt>
      <trkpt lat="43.84795" lon="3.44731">
        <ele>684.8</ele>
        <time>2020-08-23T12:21:28Z</time>
      </trkpt>
      <trkpt lat="43.84802" lon="3.44603">
        <ele>686.3</ele>
        <time>2020-08-23T12:22:13Z</time>
      </trkpt>
      <trkpt lat="43.84797" lon="3.44478">
        <ele>688.8</ele>
        <time>2020-08-23T12:23:19Z</time>
      </trkpt>
      <trkpt lat="43.84816" lon="3.44347">
        <ele>691.3</ele>
        <time>2020-08-23T12:24:29Z</time>
      </trkpt>
      <trkpt lat="43.84869" lon="3.44249">
        <ele>694.1</ele>
        <time>2020-08-23T12:25:25Z</time>
      </trkpt>
      <trkpt lat="43.84851" lon="3.44114">
        <ele>696.6</ele>
        <time>2020-08-23T12:26:07Z</time>
      </trkpt>
      <trkpt lat="43.84835" lon="3.43987">
        <ele>698.3</ele>
        <time>2020-08-23T12:26:37Z</time>
      </trkpt>
      <trkpt lat="43.84808" lon="3.43857">
        <ele>701.5</ele>
        <time>2020-08-23T12:27:07Z</time>
      </trkpt>
      <trkpt lat="43.84789" lon="3.43714">
        <ele>703.5</ele>
        <time>2020-08-23T12:27:32Z</time>
      </trkpt>
      <trkpt lat="43.84831" lon="3.436">
        <ele>704.2</ele>
        <time>2020-08-23T12:27:52Z</time>
      </trkpt>
      <trkpt lat="43.8478" lon="3.43481">
        <ele>704.6</ele>
        <time>2020-08-23T12:28:22Z</time>
      </trkpt>
      <trkpt lat="43.84713" lon="3.43381">
        <ele>705.7</ele>
        <time>2020-08-23T12:28:52Z</time>
      </trkpt>
      <trkpt lat="43.84733" lon="3.43255">
        <ele>707.1</ele>
        <time>2020-08-23T12:29:22Z</time>
      </trkpt>
      <trkpt lat="43.84767" lon="3.43136">
        <ele>708.7</ele>
        <time>2020-08-23T12:29:52Z</time>
      </trkpt>
      <trkpt lat="43.84791" lon="3.43011">
        <ele>710.2</ele>
        <time>2020-08-23T12:30:22Z</time>
      </trkpt>
      <trkpt lat="43.84807" lon="3.42875">
        <ele>711.6</ele>
        <time>2020-08-23T12:30:52Z</time>
      </trkpt>
      <trkpt lat="43.84836" lon="3.42752">
        <ele>714</ele>
        <time>2020-08-23T12:31:38Z</time>
      </trkpt>
      <trkpt lat="43.84849" lon="3.42616">
        <ele>717</ele>
        <time>2020-08-23T12:32:30Z</time>
      </trkpt>
      <trkpt lat="43.84873" lon="3.42489">
        <ele>719.2</ele>
        <time>2020-08-23T12:33:10Z</time>
      </trkpt>
      <trkpt lat="43.84871" lon="3.42359">
        <ele>721.5</ele>
        <time>2020-08-23T12:33:50Z</time>
      </trkpt>
      <trkpt lat="43.84939" lon="3.4226">
        <ele>723.2</ele>
        <time>2020-08-23T12:34:10Z</time>
      </trkpt>
      <trkpt lat="43.84978" lon="3.42142">
        <ele>723.4</ele>
        <time>2020-08-23T12:34:25Z</time>
      </trkpt>
      <trkpt lat="43.8502" lon="3.4202">
        <ele>724.3</ele>
        <time>2020-08-23T12:34:50Z</time>
      </trkpt>
      <trkpt lat="43.85061" lon="3.419">
        <ele>724.9</ele>
        <time>2020-08-23T12:35:30Z</time>
      </trkpt>
      <trkpt lat="43.85103" lon="3.41782">
        <ele>726.6</ele>
        <time>2020-08-23T12:36:15Z</time>
      </trkpt>
      <trkpt lat="43.85142" lon="3.41666">
        <ele>728.5</ele>
        <time>2020-08-23T12:37:00Z</time>
      </trkpt>
      <trkpt lat="43.85174" lon="3.41542">
        <ele>730.4</ele>
        <time>2020-08-23T12:37:45Z</time>
      </trkpt>
      <trkpt lat="43.85196" lon="3.41404">
        <ele>732.3</ele>
        <time>2020-08-23T12:38:25Z</time>
      </trkpt>
      <trkpt lat="43.85213" lon="3.4127">
        <ele>735</ele>
        <time>2020-08-23T12:39:05Z</time>
      </trkpt>
      <trkpt lat="43.85249" lon="3.41145">
        <ele>738.2</ele>
        <time>2020-08-23T12:39:50Z</time>
      </trkpt>
      <trkpt lat="43.85295" lon="3.41029">
        <ele>741.4</ele>
        <time>2020-08-23T12:40:42Z</time>
      </trkpt>
      <trkpt lat="43.85268" lon="3.40901">
        <ele>743.9</ele>
        <time>2020-08-23T12:41:32Z</time>
      </trkpt>
      <trkpt lat="43.85262" lon="3.40762">
        <ele>745.9</ele>
        <time>2020-08-23T12:42:17Z</time>
      </trkpt>
      <trkpt lat="43.85298" lon="3.40648">
        <ele>747.6</ele>
        <time>2020-08-23T12:42:57Z</time>
      </trkpt>
      <trkpt lat="43.85341" lon="3.4053">
        <ele>749.3</ele>
        <time>2020-08-23T12:43:38Z</time>
      </trkpt>
      <trkpt lat="43.85374" lon="3.40415">
        <ele>750.9</ele>
        <time>2020-08-23T12:44:18Z</time>
      </trkpt>
      <trkpt lat="43.85453" lon="3.40359">
        <ele>752.8</ele>
        <time>2020-08-23T12:45:08Z</time>
      </trkpt>
      <trkpt lat="43.85549" lon="3.4037">
        <ele>754.9</ele>
        <time>2020-08-23T12:45:59Z</time>
      </trkpt>
      <trkpt lat="43.85617" lon="3.40282">
        <ele>757.6</ele>
        <time>2020-08-23T12:47:02Z</time>
      </trkpt>
      <trkpt lat="43.85629" lon="3.40149">
        <ele>759.6</ele>
        <time>2020-08-23T12:47:56Z</time>
      </trkpt>
      <trkpt lat="43.85654" lon="3.40019">
        <ele>761</ele>
        <time>2020-08-23T12:48:49Z</time>
      </trkpt>
      <trkpt lat="43.85644" lon="3.39886">
        <ele>762.4</ele>
        <time>2020-08-23T12:49:44Z</time>
      </trkpt>
      <trkpt lat="43.85629" lon="3.3976">
        <ele>763.5</ele>
        <time>2020-08-23T12:50:24Z</time>
      </trkpt>
      <trkpt lat="43.8562" lon="3.3963">
        <ele>764.5</ele>
        <time>2020-08-23T12:51:10Z</time>
      </trkpt>
      <trkpt lat="43.85605" lon="3.39506">
        <ele>765.4</ele>
        <time>2020-08-23T12:51:55Z</time>
      </trkpt>
      <trkpt lat="43.85551" lon="3.39387">
        <ele>766.3</ele>
        <time>2020-08-23T12:52:35Z</time>
      </trkpt>
      <trkpt lat="43.85517" lon="3.39258">
        <ele>767.1</ele>
        <time>2020-08-23T12:53:15Z</time>
      </trkpt>
      <trkpt lat="43.85441" lon="3.39171">
        <ele>770.1</ele>
        <time>2020-08-23T12:54:09Z</time>
      </trkpt>
      <trkpt lat="43.85378" lon="3.39063">
        <ele>778.2</ele>
        <time>2020-08-23T12:55:10Z</time>
      </trkpt>
      <trkpt lat="43.85395" lon="3.38934">
        <ele>786.2</ele>
        <time>2020-08-23T12:56:10Z</time>
      </trkpt>
      <trkpt lat="43.85484" lon="3.38877">
        <ele>791.5</ele>
        <time>2020-08-23T12:57:04Z</time>
      </trkpt>
      <trkpt lat="43.85547" lon="3.38777">
        <ele>795</ele>
        <time>2020-08-23T12:57:44Z</time>
      </trkpt>
      <trkpt lat="43.8554" lon="3.38652">
        <ele>797.5</ele>
        <time>2020-08-23T12:58:54Z</time>
      </trkpt>
      <trkpt lat="43.85525" lon="3.38516">
        <ele>799.3</ele>
        <time>2020-08-23T13:01:12Z</time>
      </trkpt>
      <trkpt lat="43.85533" lon="3.38368">
        <ele>801.2</ele>
        <time>2020-08-23T13:02:44Z</time>
      </trkpt>
      <trkpt lat="43.85589" lon="3.38255">
        <ele>801.6</ele>
        <time>2020-08-23T13:03:09Z</time>
      </trkpt>
      <trkpt lat="43.85667" lon="3.38184">
        <ele>801.6</ele>
        <time>2020-08-23T13:03:57Z</time>
      </trkpt>
      <trkpt lat="43.85702" lon="3.38061">
        <ele>801.5</ele>
        <time>2020-08-23T13:04:52Z</time>
      </trkpt>
      <trkpt lat="43.85708" lon="3.37916">
        <ele>801.7</ele>
        <time>2020-08-23T13:05:36Z</time>
      </trkpt>
      <trkpt lat="43.85708" lon="3.37752">
        <ele>801.7</ele>
        <time>2020-08-23T13:05:56Z</time>
      </trkpt>
      <trkpt lat="43.85685" lon="3.37581">
        <ele>800.9</ele>
        <time>2020-08-23T13:06:11Z</time>
      </trkpt>
      <trkpt lat="43.85667" lon="3.37425">
        <ele>800.5</ele>
        <time>2020-08-23T13:06:26Z</time>
      </trkpt>
      <trkpt lat="43.8562" lon="3.37289">
        <ele>799.8</ele>
        <time>2020-08-23T13:06:41Z</time>
      </trkpt>
      <trkpt lat="43.85575" lon="3.37143">
        <ele>798.6</ele>
        <time>2020-08-23T13:06:56Z</time>
      </trkpt>
      <trkpt lat="43.85553" lon="3.37005">
        <ele>798</ele>
        <time>2020-08-23T13:07:11Z</time>
      </trkpt>
      <trkpt lat="43.85527" lon="3.36872">
        <ele>796.8</ele>
        <time>2020-08-23T13:07:31Z</time>
      </trkpt>
      <trkpt lat="43.85472" lon="3.3674">
        <ele>795</ele>
        <time>2020-08-23T13:07:51Z</time>
      </trkpt>
      <trkpt lat="43.85413" lon="3.36634">
        <ele>793.7</ele>
        <time>2020-08-23T13:08:06Z</time>
      </trkpt>
      <trkpt lat="43.8535" lon="3.36504">
        <ele>792.8</ele>
        <time>2020-08-23T13:08:21Z</time>
      </trkpt>
      <trkpt lat="43.853" lon="3.3639">
        <ele>793</ele>
        <time>2020-08-23T13:08:36Z</time>
      </trkpt>
      <trkpt lat="43.85236" lon="3.36263">
        <ele>792.9</ele>
        <time>2020-08-23T13:09:01Z</time>
      </trkpt>
      <trkpt lat="43.85157" lon="3.36177">
        <ele>794.1</ele>
        <time>2020-08-23T13:09:39Z</time>
      </trkpt>
      <trkpt lat="43.85109" lon="3.36063">
        <ele>797.2</ele>
        <time>2020-08-23T13:17:34Z</time>
      </trkpt>
      <trkpt lat="43.8507" lon="3.35912">
        <ele>796.3</ele>
        <time>2020-08-23T13:17:59Z</time>
      </trkpt>
      <trkpt lat="43.85051" lon="3.35775">
        <ele>796.2</ele>
        <time>2020-08-23T13:18:14Z</time>
      </trkpt>
      <trkpt lat="43.85078" lon="3.35651">
        <ele>796.3</ele>
        <time>2020-08-23T13:18:29Z</time>
      </trkpt>
      <trkpt lat="43.85122" lon="3.35506">
        <ele>796.1</ele>
        <time>2020-08-23T13:18:49Z</time>
      </trkpt>
      <trkpt lat="43.85162" lon="3.35395">
        <ele>795.8</ele>
        <time>2020-08-23T13:19:04Z</time>
      </trkpt>
      <trkpt lat="43.85205" lon="3.35263">
        <ele>796.2</ele>
        <time>2020-08-23T13:19:24Z</time>
      </trkpt>
      <trkpt lat="43.85247" lon="3.35137">
        <ele>795.9</ele>
        <time>2020-08-23T13:19:54Z</time>
      </trkpt>
      <trkpt lat="43.8529" lon="3.35028">
        <ele>797.6</ele>
        <time>2020-08-23T13:20:43Z</time>
      </trkpt>
      <trkpt lat="43.85327" lon="3.34912">
        <ele>798.5</ele>
        <time>2020-08-23T13:21:33Z</time>
      </trkpt>
      <trkpt lat="43.85366" lon="3.3478">
        <ele>798.3</ele>
        <time>2020-08-23T13:22:08Z</time>
      </trkpt>
      <trkpt lat="43.85392" lon="3.34646">
        <ele>798.6</ele>
        <time>2020-08-23T13:22:38Z</time>
      </trkpt>
      <trkpt lat="43.85417" lon="3.34521">
        <ele>800.1</ele>
        <time>2020-08-23T13:23:18Z</time>
      </trkpt>
      <trkpt lat="43.85442" lon="3.34394">
        <ele>801.8</ele>
        <time>2020-08-23T13:24:00Z</time>
      </trkpt>
      <trkpt lat="43.85469" lon="3.34269">
        <ele>802.5</ele>
        <time>2020-08-23T13:24:25Z</time>
      </trkpt>
      <trkpt lat="43.85495" lon="3.34142">
        <ele>802.1</ele>
        <time>2020-08-23T13:25:05Z</time>
      </trkpt>
      <trkpt lat="43.85518" lon="3.34018">
        <ele>800.4</ele>
        <time>2020-08-23T13:25:30Z</time>
      </trkpt>
      <trkpt lat="43.85543" lon="3.33885">
        <ele>799.6</ele>
        <time>2020-08-23T13:25:55Z</time>
      </trkpt>
      <trkpt lat="43.85569" lon="3.33753">
        <ele>799.3</ele>
        <time>2020-08-23T13:26:25Z</time>
      </trkpt>
      <trkpt lat="43.85594" lon="3.33617">
        <ele>798.8</ele>
        <time>2020-08-23T13:26:55Z</time>
      </trkpt>
      <trkpt lat="43.85618" lon="3.33486">
        <ele>798.2</ele>
        <time>2020-08-23T13:27:25Z</time>
      </trkpt>
      <trkpt lat="43.85643" lon="3.33349">
        <ele>797.5</ele>
        <time>2020-08-23T13:28:00Z</time>
      </trkpt>
      <trkpt lat="43.85667" lon="3.33226">
        <ele>797</ele>
        <time>2020-08-23T13:28:35Z</time>
      </trkpt>
      <trkpt lat="43.85695" lon="3.33104">
        <ele>796.7</ele>
        <time>2020-08-23T13:29:10Z</time>
      </trkpt>
      <trkpt lat="43.85734" lon="3.32958">
        <ele>796.5</ele>
        <time>2020-08-23T13:29:35Z</time>
      </trkpt>
      <trkpt lat="43.85773" lon="3.32802">
        <ele>796.4</ele>
        <time>2020-08-23T13:29:55Z</time>
      </trkpt>
      <trkpt lat="43.85804" lon="3.32684">
        <ele>796.1</ele>
        <time>2020-08-23T13:30:10Z</time>
      </trkpt>
      <trkpt lat="43.8585" lon="3.3254">
        <ele>795.6</ele>
        <time>2020-08-23T13:30:30Z</time>
      </trkpt>
      <trkpt lat="43.85926" lon="3.32446">
        <ele>796</ele>
        <time>2020-08-23T13:30:55Z</time>
      </trkpt>
      <trkpt lat="43.8601" lon="3.32336">
        <ele>793.1</ele>
        <time>2020-08-23T13:31:20Z</time>
      </trkpt>
      <trkpt lat="43.86089" lon="3.32237">
        <ele>790.3</ele>
        <time>2020-08-23T13:31:40Z</time>
      </trkpt>
      <trkpt lat="43.86149" lon="3.32147">
        <ele>790.4</ele>
        <time>2020-08-23T13:32:10Z</time>
      </trkpt>
      <trkpt lat="43.86196" lon="3.32039">
        <ele>791.7</ele>
        <time>2020-08-23T13:34:47Z</time>
      </trkpt>
      <trkpt lat="43.8626" lon="3.31939">
        <ele>791.8</ele>
        <time>2020-08-23T13:35:32Z</time>
      </trkpt>
      <trkpt lat="43.86338" lon="3.31871">
        <ele>792</ele>
        <time>2020-08-23T13:36:17Z</time>
      </trkpt>
    </trkseg>
  </trk>
</gpx>